Time;durP1;ratioP1;P1;durP2;ratioP2;P2;SDS_P1;SDS_P2;PMS_P1;PMS_P2;Temp;Humidity;BMP_temperature;BMP_pressure;BME280_temperature;BME280_humidity;BME280_pressure;Samples;Min_cycle;Max_cycle;Signal;HPM_P1;HPM_P2
2023/09/13 00:01:28;;;;;;;14.85;10.40;;;;;;;-142.75;100.00;75568.47;5004797;28;20129;-60
2023/09/13 00:03:53;;;;;;;14.57;9.45;;;;;;;-142.75;100.00;75568.47;5007541;28;20037;-60
2023/09/13 00:06:18;;;;;;;12.05;8.38;;;;;;;-142.75;100.00;75574.38;4999423;28;20023;-59
2023/09/13 00:08:43;;;;;;;13.25;8.80;;;;;;;-142.75;100.00;75566.50;4988077;28;20073;-59
2023/09/13 00:11:09;;;;;;;16.17;10.25;;;;;;;-142.75;100.00;75562.56;4987583;28;20120;-59
2023/09/13 00:13:34;;;;;;;18.63;11.63;;;;;;;-142.75;100.00;75556.66;4988234;28;20018;-60
2023/09/13 00:16:00;;;;;;;15.85;10.75;;;;;;;-142.75;100.00;75550.75;4988364;28;20477;-59
2023/09/13 00:18:25;;;;;;;19.58;12.13;;;;;;;-142.75;100.00;75540.91;4987741;28;20065;-60
2023/09/13 00:20:53;;;;;;;19.42;12.32;;;;;;;-142.75;100.00;75529.09;4987549;28;20395;-62
2023/09/13 00:23:18;;;;;;;21.67;13.57;;;;;;;-142.75;100.00;75515.31;4988153;28;20081;-60
2023/09/13 00:25:44;;;;;;;25.08;15.70;;;;;;;-142.75;100.00;75503.53;4986616;28;20081;-60
2023/09/13 00:28:09;;;;;;;20.10;14.45;;;;;;;-142.75;100.00;75487.78;4987033;28;20854;-60
2023/09/13 00:30:35;;;;;;;24.75;14.90;;;;;;;-142.75;100.00;75493.69;4987334;28;20066;-60
2023/09/13 00:33:00;;;;;;;27.40;16.70;;;;;;;-142.75;100.00;75479.91;4987956;28;20045;-60
2023/09/13 00:35:26;;;;;;;22.98;15.65;;;;;;;-142.75;100.00;75472.03;4987591;28;20080;-60
2023/09/13 00:37:51;;;;;;;25.73;16.95;;;;;;;-142.75;100.00;75477.94;4987530;28;20037;-60
2023/09/13 00:40:17;;;;;;;29.02;16.95;;;;;;;-142.75;100.00;75464.16;4987379;28;20537;-60
2023/09/13 00:42:43;;;;;;;28.10;17.05;;;;;;;-142.75;100.00;75468.09;4987738;28;20517;-60
2023/09/13 00:45:09;;;;;;;25.25;15.88;;;;;;;-142.75;100.00;75462.19;4987419;28;20027;-60
2023/09/13 00:47:35;;;;;;;25.98;15.60;;;;;;;-142.75;100.00;75456.28;4987505;28;20510;-60
2023/09/13 00:50:00;;;;;;;25.02;15.50;;;;;;;-142.75;100.00;75458.25;4987137;28;20096;-60
2023/09/13 00:52:26;;;;;;;26.85;15.80;;;;;;;-142.75;100.00;75448.41;4987824;28;20026;-60
2023/09/13 00:54:53;;;;;;;27.13;15.52;;;;;;;-142.75;100.00;75448.41;4987212;28;20517;-60
2023/09/13 00:57:20;;;;;;;27.35;15.32;;;;;;;-142.75;100.00;75440.53;4987192;28;20120;-60
2023/09/13 00:59:45;;;;;;;24.73;14.98;;;;;;;-142.75;100.00;75434.66;4986899;28;20053;-60
2023/09/13 01:02:11;;;;;;;27.85;15.38;;;;;;;-142.75;100.00;75430.72;4986869;28;20026;-60
2023/09/13 01:04:38;;;;;;;23.92;15.20;;;;;;;-142.75;100.00;75436.59;4987239;28;20022;-60
2023/09/13 01:07:06;;;;;;;23.00;14.55;;;;;;;-142.75;100.00;75432.69;4987430;28;20095;-60
2023/09/13 01:09:32;;;;;;;22.67;15.70;;;;;;;-142.75;100.00;75436.59;4987277;28;20048;-60
2023/09/13 01:11:58;;;;;;;26.08;14.93;;;;;;;-142.75;100.00;75440.53;4987023;28;20042;-60
2023/09/13 01:14:23;;;;;;;26.50;15.30;;;;;;;-142.75;100.00;75432.69;4986923;28;20026;-60
2023/09/13 01:17:00;;;;;;;26.88;14.80;;;;;;;-142.75;100.00;75446.44;4986991;28;20048;-60
2023/09/13 01:19:50;;;;;;;23.55;15.60;;;;;;;-142.75;100.00;75440.53;4986628;28;20022;-62
2023/09/13 01:22:49;;;;;;;24.90;14.55;;;;;;;-142.75;100.00;75440.53;4987109;28;20061;-60
2023/09/13 01:25:14;;;;;;;23.58;14.38;;;;;;;-142.75;100.00;75452.34;4986807;28;20034;-60
2023/09/13 01:28:02;;;;;;;23.05;15.07;;;;;;;-142.75;100.00;75456.28;4986618;28;20029;-60
2023/09/13 01:30:28;;;;;;;20.55;14.35;;;;;;;-142.75;100.00;75468.09;4986426;28;20638;-61
2023/09/13 01:32:54;;;;;;;20.50;14.45;;;;;;;-142.75;100.00;75468.09;4986668;28;20042;-59
2023/09/13 01:35:19;;;;;;;19.95;14.13;;;;;;;-142.75;100.00;75475.97;4986366;28;20478;-61
2023/09/13 01:37:45;;;;;;;21.35;13.80;;;;;;;-142.75;100.00;75483.84;4986728;28;20116;-61
2023/09/13 01:40:10;;;;;;;29.27;13.77;;;;;;;-142.75;100.00;75491.72;4986492;28;20073;-60
2023/09/13 01:42:40;;;;;;;23.80;13.60;;;;;;;-142.75;100.00;75495.66;4986641;28;20034;-61
2023/09/13 01:45:11;;;;;;;24.00;13.43;;;;;;;-142.75;100.00;75501.56;4997829;28;20050;-61
2023/09/13 01:47:40;;;;;;;22.67;13.20;;;;;;;-142.75;100.00;75509.44;5006046;28;20041;-61
2023/09/13 01:50:07;;;;;;;22.98;13.82;;;;;;;-142.75;100.00;75507.47;5005461;28;20374;-61
2023/09/13 01:52:32;;;;;;;22.10;14.10;;;;;;;-142.75;100.00;75527.13;5006797;28;20049;-61
2023/09/13 01:54:58;;;;;;;19.30;13.20;;;;;;;-142.75;100.00;75515.31;5006130;28;20491;-61
2023/09/13 01:57:23;;;;;;;17.67;13.02;;;;;;;-142.75;100.00;75523.19;5005948;28;20033;-61
2023/09/13 01:59:49;;;;;;;21.75;12.70;;;;;;;-142.75;100.00;75546.81;5005584;28;20022;-61
2023/09/13 02:02:15;;;;;;;17.33;11.18;;;;;;;-142.75;100.00;75554.69;5005896;28;20025;-61
2023/09/13 02:04:40;;;;;;;13.90;10.13;;;;;;;-142.75;100.00;75568.47;5005932;28;20033;-61
2023/09/13 02:07:05;;;;;;;16.30;11.38;;;;;;;-142.75;100.00;75582.25;5005793;28;20076;-61
2023/09/13 02:09:31;;;;;;;19.90;12.38;;;;;;;-142.75;100.00;75578.31;5006051;28;20656;-61
2023/09/13 02:11:56;;;;;;;20.70;11.55;;;;;;;-142.75;100.00;75588.16;5005856;28;20092;-61
2023/09/13 02:14:21;;;;;;;17.65;11.38;;;;;;;-142.75;100.00;75590.13;5021154;28;20014;-61
2023/09/13 02:16:47;;;;;;;17.70;12.43;;;;;;;-142.75;100.00;75586.19;4992597;28;20406;-60
2023/09/13 02:19:12;;;;;;;16.50;11.50;;;;;;;-142.75;100.00;75586.19;4986184;28;20049;-60
2023/09/13 02:21:37;;;;;;;18.13;12.45;;;;;;;-142.75;100.00;75594.06;4986318;28;20105;-61
2023/09/13 02:24:03;;;;;;;19.35;12.45;;;;;;;-142.75;100.00;75605.84;4987000;28;20041;-61
2023/09/13 02:26:30;;;;;;;19.08;12.52;;;;;;;-142.75;100.00;75594.06;4986255;28;20026;-60
2023/09/13 02:28:56;;;;;;;17.75;11.90;;;;;;;-142.75;100.00;75597.97;4986415;28;20109;-61
2023/09/13 02:31:26;;;;;;;20.17;11.98;;;;;;;-142.75;100.00;75601.91;4986216;28;20385;-61
2023/09/13 02:33:53;;;;;;;17.80;11.52;;;;;;;-142.75;100.00;75621.59;4986188;28;20033;-61
2023/09/13 02:36:18;;;;;;;18.65;11.43;;;;;;;-142.75;100.00;75629.47;4985997;28;20033;-61
2023/09/13 02:38:44;;;;;;;18.88;10.90;;;;;;;-142.75;100.00;75611.75;4986214;28;20026;-61
2023/09/13 02:41:09;;;;;;;20.33;12.80;;;;;;;-142.75;100.00;75617.66;4985799;28;20175;-60
2023/09/13 02:43:35;;;;;;;19.00;11.93;;;;;;;-142.75;100.00;75615.69;4986063;28;20030;-60
2023/09/13 02:46:00;;;;;;;22.88;14.13;;;;;;;-142.75;100.00;75603.88;4986412;28;20027;-60
2023/09/13 02:48:25;;;;;;;29.10;15.20;;;;;;;-142.75;100.00;75609.78;4985904;28;20030;-60
2023/09/13 02:50:51;;;;;;;20.95;14.68;;;;;;;-142.75;100.00;75592.09;4988172;28;20037;-60
2023/09/13 02:53:16;;;;;;;24.65;15.20;;;;;;;-142.75;100.00;75596.00;4990161;28;20026;-60
2023/09/13 02:55:42;;;;;;;25.52;16.05;;;;;;;-142.75;100.00;75578.31;4989601;28;20030;-60
2023/09/13 02:58:08;;;;;;;21.65;14.38;;;;;;;-142.75;100.00;75586.19;4989647;28;20023;-60
2023/09/13 03:00:34;;;;;;;23.70;14.45;;;;;;;-142.75;100.00;75594.06;4989218;28;20170;-60
2023/09/13 03:02:59;;;;;;;23.05;13.95;;;;;;;-142.75;100.00;75596.00;4989488;28;20120;-60
2023/09/13 03:05:25;;;;;;;24.00;15.00;;;;;;;-142.75;100.00;75597.97;4989230;28;20033;-60
2023/09/13 03:07:51;;;;;;;24.88;16.17;;;;;;;-142.75;100.00;75576.34;4989015;28;20044;-60
2023/09/13 03:10:16;;;;;;;28.42;15.95;;;;;;;-142.75;100.00;75584.22;5004598;28;20497;-60
2023/09/13 03:12:42;;;;;;;24.05;16.35;;;;;;;-142.75;100.00;75576.34;5007546;28;20018;-60
2023/09/13 03:15:07;;;;;;;24.83;16.50;;;;;;;-142.75;100.00;75588.16;5008414;28;20057;-60
2023/09/13 03:17:33;;;;;;;30.00;16.38;;;;;;;-142.75;100.00;75592.09;5008501;28;20083;-60
2023/09/13 03:19:58;;;;;;;26.73;16.75;;;;;;;-142.75;100.00;75597.97;5008142;28;20096;-60
2023/09/13 03:22:23;;;;;;;22.50;15.43;;;;;;;-142.75;100.00;75611.75;5008505;28;20678;-60
2023/09/13 03:24:49;;;;;;;28.00;15.77;;;;;;;-142.75;100.00;75621.59;5008913;28;20018;-60
2023/09/13 03:27:14;;;;;;;22.17;15.73;;;;;;;-142.75;100.00;75619.63;5008322;28;20055;-60
2023/09/13 03:29:40;;;;;;;25.85;16.63;;;;;;;-142.75;100.00;75619.63;5023668;28;20539;-60
2023/09/13 03:32:06;;;;;;;26.83;17.13;;;;;;;-142.75;100.00;75617.66;5008324;28;20487;-59
2023/09/13 03:34:32;;;;;;;26.83;17.40;;;;;;;-142.75;100.00;75621.59;5008444;28;20029;-60
2023/09/13 03:36:57;;;;;;;28.98;17.50;;;;;;;-142.75;100.00;75631.44;5008287;28;20501;-60
2023/09/13 03:39:25;;;;;;;27.17;18.67;;;;;;;-142.75;100.00;75641.28;5008117;28;20477;-60
2023/09/13 03:41:50;;;;;;;34.10;19.35;;;;;;;-142.75;100.00;75643.25;5008027;28;20080;-60
2023/09/13 03:44:16;;;;;;;34.25;20.35;;;;;;;-142.75;100.00;75637.34;5007901;28;20030;-60
2023/09/13 03:46:41;;;;;;;31.08;18.13;;;;;;;-142.75;100.00;75641.28;5007990;28;20021;-60
2023/09/13 03:49:06;;;;;;;31.48;19.67;;;;;;;-142.75;100.00;75639.31;5008155;28;20018;-60
2023/09/13 03:51:32;;;;;;;34.58;20.65;;;;;;;-142.75;100.00;75643.25;5007675;28;20033;-61
2023/09/13 03:53:58;;;;;;;33.33;20.70;;;;;;;-142.75;100.00;75633.41;5008440;28;20089;-59
2023/09/13 03:56:23;;;;;;;34.42;20.63;;;;;;;-142.75;100.00;75641.28;5007870;28;20030;-60
2023/09/13 03:58:49;;;;;;;34.10;20.85;;;;;;;-142.75;100.00;75651.13;5008020;28;20087;-60
2023/09/13 04:01:14;;;;;;;32.78;20.35;;;;;;;-142.75;100.00;75655.06;5007398;28;20034;-60
2023/09/13 04:03:40;;;;;;;35.47;21.30;;;;;;;-142.75;100.00;75649.16;5007759;28;20022;-60
2023/09/13 04:06:05;;;;;;;32.97;20.10;;;;;;;-142.75;100.00;75647.19;5008084;28;20116;-60
2023/09/13 04:08:31;;;;;;;30.88;19.38;;;;;;;-142.75;100.00;75643.25;5008108;28;20378;-60
2023/09/13 04:10:56;;;;;;;32.15;19.33;;;;;;;-142.75;100.00;75637.34;5007693;28;20484;-60
2023/09/13 04:13:22;;;;;;;32.88;20.33;;;;;;;-142.75;100.00;75637.34;5007280;28;20037;-60
2023/09/13 04:15:47;;;;;;;30.45;20.27;;;;;;;-142.75;100.00;75651.13;5007323;28;20484;-60
2023/09/13 04:18:13;;;;;;;35.17;20.33;;;;;;;-142.75;100.00;75641.28;5007673;28;20086;-60
2023/09/13 04:20:39;;;;;;;35.08;20.40;;;;;;;-142.75;100.00;75645.22;5007276;28;20397;-60
2023/09/13 04:23:06;;;;;;;34.58;20.63;;;;;;;-142.75;100.00;75649.16;5008219;28;20164;-60
2023/09/13 04:25:32;;;;;;;37.55;21.98;;;;;;;-142.75;100.00;75647.19;5007319;28;20022;-59
2023/09/13 04:27:57;;;;;;;39.45;21.25;;;;;;;-142.75;100.00;75639.31;5007291;28;20068;-59
2023/09/13 04:30:22;;;;;;;39.10;21.75;;;;;;;-142.75;100.00;75637.34;5006703;28;20488;-59
2023/09/13 04:32:48;;;;;;;37.35;21.48;;;;;;;-142.75;100.00;75623.56;4997062;28;20033;-59
2023/09/13 04:35:13;;;;;;;34.67;20.45;;;;;;;-142.75;100.00;75627.50;4987152;28;20452;-59
2023/09/13 04:37:39;;;;;;;31.02;20.52;;;;;;;-142.75;100.00;75623.56;4987520;28;20069;-60
2023/09/13 04:40:05;;;;;;;34.35;21.20;;;;;;;-142.75;100.00;75619.63;4987491;28;20459;-60
2023/09/13 04:42:40;;;;;;;32.42;19.20;;;;;;;-142.75;100.00;75621.59;4985843;28;20042;-60
2023/09/13 04:45:06;;;;;;;30.37;18.93;;;;;;;-142.75;100.00;75633.41;4986837;28;20037;-59
2023/09/13 04:47:31;;;;;;;32.60;19.33;;;;;;;-142.75;100.00;75637.34;4986838;28;20273;-58
2023/09/13 04:49:57;;;;;;;29.83;19.58;;;;;;;-142.75;100.00;75645.22;4986593;28;20050;-60
2023/09/13 04:52:22;;;;;;;31.42;18.55;;;;;;;-142.75;100.00;75641.28;5001745;28;20026;-60
2023/09/13 04:54:47;;;;;;;30.17;18.13;;;;;;;-142.75;100.00;75637.34;4986847;28;20045;-59
2023/09/13 04:57:13;;;;;;;36.08;18.30;;;;;;;-142.75;100.00;75639.31;4986464;28;20429;-59
2023/09/13 04:59:44;;;;;;;31.73;18.27;;;;;;;-142.75;100.00;75639.31;4986315;28;20106;-60
2023/09/13 05:02:11;;;;;;;30.65;17.83;;;;;;;-142.75;100.00;75641.28;4986392;28;20018;-60
2023/09/13 05:04:36;;;;;;;26.73;16.35;;;;;;;-142.75;100.00;75657.03;4986551;28;20030;-60
2023/09/13 05:07:02;;;;;;;32.55;18.15;;;;;;;-142.75;100.00;75668.84;4986751;28;20044;-60
2023/09/13 05:09:27;;;;;;;29.85;18.83;;;;;;;-142.75;100.00;75664.91;4986098;28;20109;-59
2023/09/13 05:11:53;;;;;;;20.83;11.75;;;;;;;-142.75;100.00;75706.22;4986498;28;20482;-60
2023/09/13 05:14:18;;;;;;;12.43;5.10;;;;;;;-142.75;100.00;75767.22;4985988;28;20450;-60
2023/09/13 05:16:43;;;;;;;8.57;3.22;;;;;;;-142.75;100.00;75796.75;4986590;28;20022;-60
2023/09/13 05:19:09;;;;;;;16.17;4.60;;;;;;;-142.75;100.00;75798.72;4986180;28;20401;-59
2023/09/13 05:21:34;;;;;;;13.05;2.90;;;;;;;-142.75;100.00;75824.31;5001446;28;20682;-60
2023/09/13 05:24:00;;;;;;;13.13;2.75;;;;;;;-142.75;100.00;75863.66;4986803;28;20018;-60
2023/09/13 05:26:26;;;;;;;10.90;1.92;;;;;;;-142.75;100.00;75877.44;4985926;28;20125;-60
2023/09/13 05:28:51;;;;;;;8.15;1.52;;;;;;;-142.75;100.00;75883.34;4985349;28;20763;-59
2023/09/13 05:31:17;;;;;;;10.30;1.70;;;;;;;-142.75;100.00;75893.19;4986848;28;20030;-60
2023/09/13 05:33:42;;;;;;;11.77;2.00;;;;;;;-142.75;100.00;75906.97;4987240;28;20088;-60
2023/09/13 05:36:12;;;;;;;9.80;1.73;;;;;;;-142.75;100.00;75881.38;4987446;28;20030;-59
2023/09/13 05:38:38;;;;;;;6.00;1.17;;;;;;;-142.75;100.00;75901.06;4987189;28;20026;-59
2023/09/13 05:41:10;;;;;;;3.10;0.85;;;;;;;-142.75;100.00;75973.88;4987763;28;20033;-60
2023/09/13 05:43:40;;;;;;;3.63;0.73;;;;;;;-142.75;100.00;76007.34;4986987;28;20018;-59
2023/09/13 05:46:07;;;;;;;3.42;0.70;;;;;;;-142.75;100.00;76027.03;4985864;28;20682;-60
2023/09/13 05:48:33;;;;;;;6.57;0.77;;;;;;;-142.75;100.00;76048.69;4987345;28;20531;-60
2023/09/13 05:50:59;;;;;;;3.17;0.90;;;;;;;-142.75;100.00;76062.47;4986943;28;20053;-59
2023/09/13 05:53:24;;;;;;;6.50;0.80;;;;;;;-142.75;100.00;76082.13;4987198;28;20022;-60
2023/09/13 05:55:50;;;;;;;7.20;0.77;;;;;;;-142.75;100.00;76109.69;5021665;22;20296;-61
2023/09/13 05:58:16;;;;;;;2.35;0.80;;;;;;;-142.75;100.00;76113.63;5013385;28;20126;-61
2023/09/13 06:00:42;;;;;;;2.65;0.50;;;;;;;-142.75;100.00;76095.91;5017041;28;20025;-61
2023/09/13 06:03:08;;;;;;;3.00;0.98;;;;;;;-142.75;100.00;76093.94;5026294;28;20070;-61
2023/09/13 06:05:34;;;;;;;5.38;0.88;;;;;;;-142.75;100.00;76121.50;5013887;28;20055;-62
2023/09/13 06:08:00;;;;;;;3.92;0.93;;;;;;;-142.75;100.00;76141.19;5021154;28;20028;-61
2023/09/13 06:10:25;;;;;;;3.72;0.80;;;;;;;-142.75;100.00;76151.03;5022300;28;20018;-61
2023/09/13 06:12:50;;;;;;;5.20;0.70;;;;;;;-142.75;100.00;76153.00;5013295;28;20109;-61
2023/09/13 06:15:16;;;;;;;2.47;0.70;;;;;;;-142.75;100.00;76156.94;5016965;28;20033;-61
2023/09/13 06:17:41;;;;;;;5.43;1.15;;;;;;;-142.75;100.00;76154.97;5017753;28;20021;-62
2023/09/13 06:20:07;;;;;;;4.47;0.90;;;;;;;-142.75;100.00;76172.69;5026160;28;20029;-61
2023/09/13 06:22:32;;;;;;;4.57;0.65;;;;;;;-142.75;100.00;76192.38;5008103;28;20034;-60
2023/09/13 06:24:59;;;;;;;3.03;1.08;;;;;;;-142.75;100.00;76188.44;5004941;28;20113;-59
2023/09/13 06:27:24;;;;;;;3.05;0.90;;;;;;;-142.75;100.00;76214.00;5007859;28;20044;-62
2023/09/13 06:29:50;;;;;;;4.40;0.98;;;;;;;-142.75;100.00;76204.16;5007660;28;20029;-61
2023/09/13 06:32:15;;;;;;;4.47;0.85;;;;;;;-142.75;100.00;76204.16;5008919;28;20165;-62
2023/09/13 06:34:40;;;;;;;5.15;0.93;;;;;;;-142.75;100.00;76219.91;5009598;28;20030;-61
2023/09/13 06:37:06;;;;;;;5.55;1.00;;;;;;;-142.75;100.00;76231.72;5009783;28;20033;-56
2023/09/13 06:39:32;;;;;;;2.78;1.05;;;;;;;-142.75;100.00;76233.69;5009582;28;20033;-60
2023/09/13 06:41:57;;;;;;;5.15;1.05;;;;;;;-142.75;100.00;76221.88;5006421;28;20034;-61
2023/09/13 06:44:23;;;;;;;6.80;1.20;;;;;;;-142.75;100.00;76210.06;5008466;28;20034;-63
2023/09/13 06:46:48;;;;;;;3.15;1.15;;;;;;;-142.75;100.00;76225.81;5009128;28;20032;-60
2023/09/13 06:49:13;;;;;;;4.03;0.90;;;;;;;-142.75;100.00;76227.78;5009657;28;20615;-61
2023/09/13 06:51:39;;;;;;;3.13;1.08;;;;;;;-142.75;100.00;76215.97;5009602;28;20022;-61
2023/09/13 06:54:04;;;;;;;5.80;1.00;;;;;;;-142.75;100.00;76212.03;5009987;28;20501;-61
2023/09/13 06:56:30;;;;;;;4.97;1.48;;;;;;;-142.75;100.00;76204.16;5009720;28;20036;-61
2023/09/13 06:58:55;;;;;;;3.05;1.10;;;;;;;-142.75;100.00;76196.31;5009180;28;20114;-62
2023/09/13 07:01:20;;;;;;;6.25;1.30;;;;;;;-142.75;100.00;76200.25;5009418;28;20056;-62
2023/09/13 07:03:46;;;;;;;3.47;1.05;;;;;;;-142.75;100.00;76200.25;5009595;28;20040;-62
2023/09/13 07:06:11;;;;;;;2.15;0.80;;;;;;;-142.75;100.00;76200.25;5009603;28;20113;-62
2023/09/13 07:08:37;;;;;;;4.78;1.42;;;;;;;-142.75;100.00;76200.25;5009782;28;20049;-62
2023/09/13 07:11:02;;;;;;;5.32;1.48;;;;;;;-142.75;100.00;76208.09;5009513;28;20034;-62
2023/09/13 07:13:28;;;;;;;5.03;1.02;;;;;;;-142.75;100.00;76190.41;5006237;28;20026;-63
2023/09/13 07:15:53;;;;;;;5.22;0.90;;;;;;;-142.75;100.00;76149.06;5008023;28;20413;-62
2023/09/13 07:18:19;;;;;;;2.85;1.00;;;;;;;-142.75;100.00;76119.53;5008138;28;20048;-62
2023/09/13 07:20:45;;;;;;;7.50;1.08;;;;;;;-142.75;100.00;76103.78;5008428;28;20032;-62
2023/09/13 07:23:10;;;;;;;1.92;0.80;;;;;;;-142.75;100.00;76129.38;5005864;28;20020;-62
2023/09/13 07:25:35;;;;;;;4.32;0.85;;;;;;;-142.75;100.00;76190.41;5006218;28;20053;-62
2023/09/13 07:28:02;;;;;;;2.72;1.13;;;;;;;-142.75;100.00;76192.38;5007662;28;20026;-62
2023/09/13 07:30:28;;;;;;;3.22;0.90;;;;;;;-142.75;100.00;76223.84;5002679;28;20014;-63
2023/09/13 07:32:54;;;;;;;2.13;0.82;;;;;;;-142.75;100.00;76219.91;5008098;28;20017;-62
2023/09/13 07:35:20;;;;;;;4.55;0.90;;;;;;;-142.75;100.00;76214.00;5006454;28;20461;-62
2023/09/13 07:37:46;;;;;;;2.75;0.90;;;;;;;-142.75;100.00;76214.00;5006231;28;20030;-62
2023/09/13 07:40:11;;;;;;;2.78;0.75;;;;;;;-142.75;100.00;76263.22;5005061;28;20068;-62
2023/09/13 07:42:37;;;;;;;1.50;0.52;;;;;;;-142.75;100.00;76286.84;5006102;28;20021;-62
2023/09/13 07:45:02;;;;;;;3.42;0.90;;;;;;;-142.75;100.00;76332.13;5006390;28;20021;-61
2023/09/13 07:47:28;;;;;;;3.53;0.90;;;;;;;-142.75;100.00;76322.28;5008636;28;20896;-61
2023/09/13 07:49:54;;;;;;;2.17;0.70;;;;;;;-142.75;100.00;76367.53;5004807;28;20022;-61
2023/09/13 07:52:19;;;;;;;2.58;0.73;;;;;;;-142.75;100.00;76365.56;5023341;28;20028;-61
2023/09/13 07:54:44;;;;;;;2.00;0.60;;;;;;;-142.75;100.00;76359.66;5011032;28;20425;-60
2023/09/13 07:57:10;;;;;;;1.65;0.63;;;;;;;-142.75;100.00;76377.38;5006901;28;20025;-60
2023/09/13 07:59:35;;;;;;;2.50;0.82;;;;;;;-142.75;100.00;76353.78;5008263;28;20049;-58
2023/09/13 08:02:01;;;;;;;2.60;0.90;;;;;;;-142.75;100.00;76381.31;5007444;28;20022;-60
2023/09/13 08:04:26;;;;;;;3.63;0.70;;;;;;;-142.75;100.00;76363.59;5008339;28;20076;-60
2023/09/13 08:06:52;;;;;;;3.60;0.70;;;;;;;-142.75;100.00;76361.63;5008567;28;20068;-61
2023/09/13 08:09:17;;;;;;;2.40;0.93;;;;;;;-142.75;100.00;76328.19;5008286;28;20034;-61
2023/09/13 08:11:45;;;;;;;2.95;0.95;;;;;;;-142.75;100.00;76310.47;5008031;28;20530;-61
2023/09/13 08:14:10;;;;;;;2.70;1.20;;;;;;;-142.75;100.00;76304.56;5006905;28;20057;-60
2023/09/13 08:16:36;;;;;;;2.42;0.80;;;;;;;-142.75;100.00;76286.84;5005453;28;20052;-60
2023/09/13 08:19:02;;;;;;;2.65;0.90;;;;;;;-142.75;100.00;76286.84;5018907;28;20021;-61
2023/09/13 08:21:27;;;;;;;1.95;0.68;;;;;;;-142.75;100.00;76286.84;5019243;28;20021;-60
2023/09/13 08:23:52;;;;;;;1.25;0.65;;;;;;;-142.75;100.00;76304.56;5027970;28;20425;-60
2023/09/13 08:26:18;;;;;;;2.35;0.80;;;;;;;-142.75;100.00;76282.91;5009457;28;20033;-61
2023/09/13 08:28:44;;;;;;;2.70;0.75;;;;;;;-142.75;100.00;76267.16;5006627;28;20025;-59
2023/09/13 08:31:10;;;;;;;2.45;1.15;;;;;;;-142.75;100.00;76245.50;5007392;28;20113;-60
2023/09/13 08:33:35;;;;;;;1.10;0.47;;;;;;;-142.75;100.00;76255.34;5008171;28;20109;-60
2023/09/13 08:36:01;;;;;;;2.55;0.80;;;;;;;-142.75;100.00;76255.34;5015170;28;20117;-60
2023/09/13 08:38:27;;;;;;;1.73;0.60;;;;;;;-142.75;100.00;76251.41;5008611;28;20061;-60
2023/09/13 08:40:54;;;;;;;2.50;0.82;;;;;;;-142.75;100.00;76247.47;5006878;28;20104;-61
2023/09/13 08:43:20;;;;;;;4.78;0.90;;;;;;;-142.75;100.00;76249.44;5006617;28;20037;-61
2023/09/13 08:45:46;;;;;;;2.53;0.75;;;;;;;-142.75;100.00;76251.41;5006181;28;20025;-61
2023/09/13 08:48:12;;;;;;;3.22;1.30;;;;;;;-142.75;100.00;76229.75;5007096;28;20026;-60
2023/09/13 08:50:39;;;;;;;2.45;0.90;;;;;;;-142.75;100.00;76223.84;5006604;28;20393;-60
2023/09/13 08:53:06;;;;;;;1.67;0.68;;;;;;;-142.75;100.00;76196.31;5009618;28;20061;-61
2023/09/13 08:55:32;;;;;;;1.95;0.80;;;;;;;-142.75;100.00;76180.56;5017535;28;20088;-61
2023/09/13 08:57:59;;;;;;;1.30;0.50;;;;;;;-142.75;100.00;76180.56;5021091;28;20048;-59
2023/09/13 09:00:26;;;;;;;4.05;0.70;;;;;;;-142.75;100.00;76184.50;5015083;28;20030;-61
2023/09/13 09:02:54;;;;;;;2.72;0.75;;;;;;;-142.75;100.00;76188.44;5010648;28;20132;-61
2023/09/13 09:05:24;;;;;;;3.97;1.00;;;;;;;-142.75;100.00;76176.63;5014145;28;20489;-61
2023/09/13 09:07:50;;;;;;;3.05;0.93;;;;;;;-142.75;100.00;76178.59;5027020;28;20022;-61
2023/09/13 09:10:16;;;;;;;2.85;0.88;;;;;;;-142.75;100.00;76174.66;5026560;28;20062;-61
2023/09/13 09:12:44;;;;;;;3.38;0.98;;;;;;;-142.75;100.00;76164.81;5026980;28;20581;-61
2023/09/13 09:15:11;;;;;;;3.10;0.77;;;;;;;-142.75;100.00;76172.69;5026887;28;20587;-59
2023/09/13 09:17:39;;;;;;;2.22;0.90;;;;;;;-142.75;100.00;76164.81;5026826;28;20089;-57
2023/09/13 09:20:05;;;;;;;2.95;1.00;;;;;;;-142.75;100.00;76135.28;5027026;28;20116;-60
2023/09/13 09:22:32;;;;;;;8.27;1.50;;;;;;;-142.75;100.00;76121.50;5026669;28;20443;-60
2023/09/13 09:24:59;;;;;;;3.08;0.70;;;;;;;-142.75;100.00;76121.50;5026750;28;20028;-60
2023/09/13 09:27:24;;;;;;;4.05;1.20;;;;;;;-142.75;100.00;76117.56;5013800;28;20041;-59
2023/09/13 09:30:00;;;;;;;3.58;1.00;;;;;;;-142.75;100.00;76117.56;5006786;28;20060;-60
2023/09/13 09:32:28;;;;;;;7.10;1.10;;;;;;;-142.75;100.00;76154.97;5007104;28;20040;-61
2023/09/13 09:34:57;;;;;;;3.45;1.40;;;;;;;-142.75;100.00;76215.97;5007088;28;20561;-60
2023/09/13 09:37:29;;;;;;;3.08;0.95;;;;;;;-142.75;100.00;76259.28;5011521;28;20040;-61
2023/09/13 09:39:54;;;;;;;4.40;1.10;;;;;;;-142.75;100.00;76302.59;5019973;28;20113;-61
2023/09/13 09:42:20;;;;;;;2.30;1.35;;;;;;;-142.75;100.00;76300.63;5026484;28;20029;-60
2023/09/13 09:44:46;;;;;;;3.78;1.00;;;;;;;-142.75;100.00;76310.47;5026612;28;20396;-60
2023/09/13 09:47:12;;;;;;;2.05;1.17;;;;;;;-142.75;100.00;76304.56;5026433;28;20021;-60
2023/09/13 09:49:38;;;;;;;3.63;1.10;;;;;;;-142.75;100.00;76304.56;5026245;28;20040;-60
2023/09/13 09:52:03;;;;;;;4.45;1.20;;;;;;;-142.75;100.00;76347.84;5026558;28;20022;-61
2023/09/13 09:54:30;;;;;;;3.47;1.20;;;;;;;-142.75;100.00;76343.94;5026264;28;20037;-60
2023/09/13 09:56:55;;;;;;;7.63;1.30;;;;;;;-142.75;100.00;76322.28;5026483;28;20121;-60
2023/09/13 09:59:20;;;;;;;3.65;1.42;;;;;;;-142.75;100.00;76316.38;5027665;28;20104;-61
2023/09/13 10:01:56;;;;;;;3.10;1.40;;;;;;;-142.75;100.00;76296.69;5030458;28;20021;-60
2023/09/13 10:04:22;;;;;;;3.33;1.00;;;;;;;-142.75;100.00;76290.78;5021951;28;20056;-59
2023/09/13 10:07:03;;;;;;;3.55;1.58;;;;;;;-142.75;100.00;76204.16;5010665;28;20033;-58
2023/09/13 10:09:43;;;;;;;2.38;1.00;;;;;;;-142.75;100.00;76194.34;5010593;28;20104;-60
2023/09/13 10:12:09;;;;;;;5.55;1.27;;;;;;;-142.75;100.00;76198.28;5010818;28;20026;-60
2023/09/13 10:14:36;;;;;;;2.25;0.73;;;;;;;-142.75;100.00;76135.28;5010561;28;20026;-60
2023/09/13 10:17:04;;;;;;;5.78;1.40;;;;;;;-142.75;100.00;76082.13;5010616;28;20022;-61
2023/09/13 10:19:30;;;;;;;4.57;1.40;;;;;;;-142.75;100.00;76078.19;5007365;28;20029;-60
2023/09/13 10:21:57;;;;;;;5.18;1.60;;;;;;;-142.75;100.00;76030.97;5008820;28;20025;-60
2023/09/13 10:24:24;;;;;;;3.05;1.00;;;;;;;-142.75;100.00;76001.44;5010268;28;20367;-61
2023/09/13 10:26:53;;;;;;;4.53;1.30;;;;;;;-142.75;100.00;76025.06;5010331;28;20026;-60
2023/09/13 10:29:31;;;;;;;2.50;0.90;;;;;;;-142.75;100.00;76090.00;5010200;28;20100;-60
2023/09/13 10:32:07;;;;;;;1.58;0.70;;;;;;;-142.75;100.00;76137.25;5010174;28;20029;-61
2023/09/13 10:34:35;;;;;;;1.27;0.50;;;;;;;-142.75;100.00;76178.59;5010340;28;20026;-61
2023/09/13 10:37:39;;;;;;;2.92;0.63;;;;;;;-142.75;100.00;76212.03;5015273;28;20067;-60
2023/09/13 10:40:23;;;;;;;1.70;0.60;;;;;;;-142.75;100.00;76129.38;5029930;28;20029;-62
2023/09/13 10:42:49;;;;;;;2.00;0.40;;;;;;;-142.75;100.00;76074.25;5029849;28;20451;-61
2023/09/13 10:45:18;;;;;;;1.35;0.47;;;;;;;-142.75;100.00;76054.59;5029752;28;20052;-60
2023/09/13 10:47:49;;;;;;;1.10;0.30;;;;;;;-142.75;100.00;76025.06;5030019;28;20021;-59
2023/09/13 10:50:16;;;;;;;3.10;0.50;;;;;;;-142.75;100.00;76015.22;5029485;28;20254;-60
2023/09/13 10:52:43;;;;;;;2.45;0.50;;;;;;;-142.75;100.00;75975.84;5029455;28;20017;-60
2023/09/13 10:55:11;;;;;;;1.60;0.77;;;;;;;-142.75;100.00;75944.38;5029531;28;20437;-60
2023/09/13 10:57:37;;;;;;;3.92;0.55;;;;;;;-142.75;100.00;75977.81;5029577;28;20032;-60
2023/09/13 11:00:12;;;;;;;4.38;0.90;;;;;;;-142.75;100.00;76034.91;5029350;28;20034;-60